Flight Track Log - Related Links

Times and Time Zones

All times are in EDT time to prevent confusion due to time zone crossing. See the GJS3615 flight status page for this flight to view local times or setup timezone preferences in your user account.

Time Position Orientation Groundspeed Altitude Reporting Facility
EDT Latitude Longitude Course Direction KTS MPH feet Rate Location/Type
Wed 09:54:32 PM 39.8833 -104.5500 90° East 203 234 7,100  Level Denver TRACON
Wed 09:55:38 PM 39.8833 -104.4667 90° East 266 306 8,600 1,619 Climbing Denver TRACON
Wed 09:56:38 PM 39.8833 -104.3500 90° East 302 348 10,500 2,000 Climbing Denver TRACON
Wed 09:57:08 PM 39.8869 -104.2950 85° East 301 346 11,600 1,630 Climbing Denver Center
Wed 09:58:10 PM 39.9042 -104.1819 79° East 318 366 13,000 1,258 Climbing Denver Center
Wed 09:59:12 PM 39.9242 -104.0431 79° East 361 415 14,200 1,548 Climbing Denver Center
Wed 10:00:14 PM 39.9453 -103.9100 78° East 372 428 16,200 1,839 Climbing Denver Center
Wed 10:01:16 PM 39.9728 -103.7675 76° East 376 433 18,000 1,403 Climbing Denver Center
Wed 10:02:18 PM 39.9925 -103.6583 77° East 368 423 19,100 1,258 Climbing Denver Center
Wed 10:03:20 PM 40.0050 -103.4858 85° East 401 461 20,600 1,161 Climbing Denver Center
Wed 10:04:22 PM 40.0025 -103.3328 91° East 421 484 21,500 871 Climbing Denver Center
Wed 10:05:24 PM 39.9997 -103.1711 91° East 441 507 22,400 838 Climbing Denver Center
Wed 10:06:38 PM 39.9983 -103.0067 91° East 454 522 23,400 1,095 Climbing Denver Center
Wed 10:07:41 PM 39.9967 -102.7700 90° East 467 537 24,900 1,152 Climbing Denver Center
Wed 10:08:43 PM 39.9989 -102.6097 89° East 470 541 25,800 919 Climbing Denver Center
Wed 10:09:45 PM 40.0017 -102.4242 89° East 460 529 26,800 871 Climbing Denver Center
Wed 10:10:47 PM 40.0392 -102.2722 72° East 463 533 27,600 919 Climbing Denver Center
Wed 10:11:49 PM 40.0819 -102.0908 73° East 469 540 28,700 871 Climbing Denver Center
Wed 10:12:51 PM 40.1214 -101.9319 72° East 478 550 29,400 629 Climbing Denver Center
Wed 10:13:53 PM 40.1678 -101.7419 72° East 492 566 30,000 532 Climbing Denver Center
Wed 10:14:55 PM 40.2081 -101.5750 72° East 503 579 30,500 484 Climbing Denver Center
Wed 10:15:57 PM 40.2483 -101.4044 73° East 512 589 31,000 677 Climbing Denver Center
Wed 10:16:59 PM 40.2953 -101.2022 73° East 520 598 31,900 750 Climbing Denver Center
Wed 10:18:13 PM 40.3358 -101.0306 73° East 519 597 32,700 794 Climbing Denver Center
Wed 10:19:15 PM 40.3889 -100.8000 73° East 521 600 33,700 774 Climbing Denver Center
Wed 10:20:17 PM 40.4225 -100.6558 73° East 522 601 34,300 794 Climbing Denver Center
Wed 10:21:31 PM 40.4742 -100.4258 73° East 519 597 35,500 1,015 Climbing Denver Center
Wed 10:22:33 PM 40.5258 -100.2000 73° East 510 587 36,600 1,016 Climbing Denver Center
Wed 10:23:35 PM 40.5694 -100.0058 73° East 498 573 37,600 871 Climbing Denver Center
Wed 10:24:37 PM 40.6078 -99.8333 74° East 488 562 38,400 677 Climbing Denver Center
Wed 10:25:39 PM 40.6444 -99.6653 74° East 480 552 39,000 324 Climbing Denver Center
Wed 10:26:28 PM 40.6672 -99.5669 73° East 479 551 39,000  Level Minneapolis Center
Wed 10:27:43 PM 40.7172 -99.3264 75° East 485 558 39,000  Level Denver Center
Wed 10:28:45 PM 40.7547 -99.1531 74° East 493 567 39,000  Level Denver Center
Wed 10:29:33 PM 40.7897 -98.9892 74° East 499 574 39,000  Level Minneapolis Center
Wed 10:30:34 PM 40.8269 -98.8092 75° East 507 583 39,000  Level Minneapolis Center
Wed 10:31:36 PM 40.8647 -98.6253 75° East 516 594 39,000  Level Minneapolis Center
Wed 10:32:37 PM 40.9033 -98.4419 74° East 518 596 39,000  Level Minneapolis Center
Wed 10:33:39 PM 40.9422 -98.2550 75° East 518 596 39,000  Level Minneapolis Center
Wed 10:34:40 PM 40.9794 -98.0722 75° East 518 596 39,000  Level Minneapolis Center
Wed 10:35:41 PM 41.0169 -97.8889 75° East 517 595 39,000  Level Minneapolis Center
Wed 10:36:43 PM 41.0542 -97.7067 75° East 516 594 39,000  Level Minneapolis Center
Wed 10:37:44 PM 41.0903 -97.5269 75° East 512 589 39,000  Level Minneapolis Center
Wed 10:38:45 PM 41.1322 -97.3142 75° East 505 581 39,000  Level Minneapolis Center
Wed 10:39:47 PM 41.1669 -97.1369 75° East 501 577 39,000  Level Minneapolis Center
Wed 10:40:49 PM 41.2028 -96.9553 75° East 505 581 39,000  Level Minneapolis Center
Wed 10:41:50 PM 41.2372 -96.7719 76° East 511 588 39,000  Level Minneapolis Center
Wed 10:42:51 PM 41.2722 -96.5869 76° East 516 594 39,000  Level Minneapolis Center
Wed 10:43:53 PM 41.3078 -96.4039 75° East 513 590 39,000  Level Minneapolis Center
Wed 10:44:54 PM 41.3414 -96.2183 76° East 513 590 39,000  Level Minneapolis Center
Wed 10:45:55 PM 41.3744 -96.0367 76° East 507 583 39,000  Level Minneapolis Center
Wed 10:46:56 PM 41.4078 -95.8547 76° East 506 582 39,000  Level Minneapolis Center
Wed 10:47:58 PM 41.4472 -95.6358 76° East 507 583 39,000  Level Minneapolis Center
Wed 10:48:59 PM 41.4761 -95.4742 77° East 505 581 39,000  Level Minneapolis Center
Wed 10:50:00 PM 41.5083 -95.2922 77° East 504 580 39,000  Level Minneapolis Center
Wed 10:51:01 PM 41.5417 -95.1081 76° East 509 586 39,000  Level Minneapolis Center
Wed 10:52:03 PM 41.5728 -94.9258 77° East 507 583 39,000  Level Minneapolis Center
Wed 10:53:04 PM 41.6117 -94.7031 77° East 512 589 39,000  Level Minneapolis Center
Wed 10:54:05 PM 41.6425 -94.5194 77° East 509 586 39,000  Level Minneapolis Center
Wed 10:55:06 PM 41.6739 -94.3344 77° East 510 587 39,000  Level Minneapolis Center
Wed 10:56:08 PM 41.7039 -94.1511 78° East 507 583 39,000  Level Minneapolis Center
Wed 10:57:09 PM 41.7347 -93.9669 77° East 507 583 39,000  Level Minneapolis Center
Wed 10:58:10 PM 41.7622 -93.7986 78° East 505 581 39,000  Level Minneapolis Center
Wed 10:59:11 PM 41.7919 -93.6158 78° East 506 582 39,000  Level Minneapolis Center
Wed 11:00:17 PM 41.8275 -93.3956 78° East 508 585 39,000  Level Minneapolis Center
Wed 11:01:18 PM 41.8558 -93.2111 78° East 508 585 39,000  Level Minneapolis Center
Wed 11:02:20 PM 41.8844 -93.0289 78° East 505 581 39,000  Level Minneapolis Center
Wed 11:03:03 PM 41.9083 -92.8689 79° East 505 581 39,000  Level Chicago Center
Wed 11:04:05 PM 41.9367 -92.6867 78° East 506 582 39,000  Level Chicago Center
Wed 11:05:06 PM 41.9636 -92.5036 79° East 506 582 39,000  Level Chicago Center
Wed 11:06:07 PM 41.9914 -92.3231 78° East 502 578 39,000  Level Chicago Center
Wed 11:07:08 PM 42.0178 -92.1378 79° East 507 583 39,000  Level Chicago Center
Wed 11:08:10 PM 42.0453 -91.9567 78° East 505 581 39,000  Level Chicago Center
Wed 11:09:11 PM 42.0717 -91.7747 79° East 505 581 39,000  Level Chicago Center
Wed 11:10:12 PM 42.1025 -91.5553 79° East 505 581 39,000  Level Chicago Center
Wed 11:11:13 PM 42.1286 -91.3733 79° East 505 581 39,000  Level Chicago Center
Wed 11:12:14 PM 42.1536 -91.1914 79° East 503 579 39,000  Level Chicago Center
Wed 11:13:16 PM 42.1781 -91.0106 80° East 501 577 39,000  Level Chicago Center
Wed 11:14:17 PM 42.2003 -90.8328 80° East 490 564 39,000  Level Chicago Center
Wed 11:15:18 PM 42.2250 -90.6511 80° East 499 574 39,000  Level Chicago Center
Wed 11:16:19 PM 42.2522 -90.4356 80° East 493 567 39,000  Level Chicago Center
Wed 11:17:20 PM 42.2783 -90.2581 79° East 489 563 39,000  Level Chicago Center
Wed 11:18:21 PM 42.3064 -90.0800 78° East 489 563 39,000  Level Chicago Center
Wed 11:19:22 PM 42.3317 -89.9028 79° East 489 563 39,000  Level Chicago Center
Wed 11:20:24 PM 42.3572 -89.7253 79° East 485 558 39,000  Level Chicago Center
Wed 11:21:25 PM 42.3822 -89.5461 79° East 486 559 39,000  Level Chicago Center
Wed 11:22:26 PM 42.4108 -89.3372 79° East 486 559 39,000  Level Chicago Center
Wed 11:23:27 PM 42.4364 -89.1583 79° East 488 562 39,000  Level Chicago Center
Wed 11:24:28 PM 42.4614 -88.9808 79° East 485 558 39,000  Level Chicago Center
Wed 11:25:29 PM 42.4847 -88.8006 80° East 487 560 39,000  Level Chicago Center
Wed 11:26:30 PM 42.5094 -88.6225 79° East 485 558 39,000  Level Chicago Center
Wed 11:27:31 PM 42.5342 -88.4428 79° East 485 558 39,000 -934 Level Chicago Center
Wed 11:28:32 PM 42.5581 -88.2592 80° East 494 568 37,100 -984 Descending Chicago Center
Wed 11:29:33 PM 42.5814 -88.0811 80° East 486 559 37,000 -787 Descending Chicago Center
Wed 11:30:34 PM 42.6022 -87.9147 80° East 457 526 35,500 -2,262 Descending Chicago Center
Wed 11:31:35 PM 42.6278 -87.7158 80° East 459 528 32,400 -2,803 Descending Chicago Center
Wed 11:32:36 PM 42.6500 -87.5392 80° East 472 543 29,800 -2,459 Descending Chicago Center
Wed 11:33:37 PM 42.6708 -87.3772 80° East 477 549 27,400 -2,459 Descending Chicago Center
Wed 11:34:38 PM 42.6900 -87.2064 81° East 463 533 24,800 -2,607 Descending Chicago Center
Wed 11:35:39 PM 42.7100 -87.0428 81° East 443 510 22,100 -2,607 Descending Chicago Center
Wed 11:36:40 PM 42.7297 -86.8878 80° East 422 486 19,500 -2,361 Descending Chicago Center
Wed 11:37:41 PM 42.7467 -86.7375 81° East 408 470 17,300 -2,164 Descending Chicago Center
Wed 11:38:42 PM 42.7639 -86.5942 81° East 391 450 15,100 -2,361 Descending Chicago Center
Wed 11:39:43 PM 42.7825 -86.4275 81° East 376 433 12,500 -1,983 Descending Chicago Center
Wed 11:40:43 PM 42.7972 -86.2986 81° East 352 405 11,100 -1,388 Descending Chicago Center
Wed 11:41:44 PM 42.8092 -86.1883 82° East 304 350 9,700 -1,574 Descending Chicago Center
Wed 11:42:45 PM 42.8211 -86.0803 81° East 294 338 7,900 -1,820 Descending Chicago Center
Wed 11:43:46 PM 42.8297 -85.9767 83° East 283 326 6,000 -1,770 Descending Chicago Center
Wed 11:44:47 PM 42.8383 -85.8786 83° East 269 310 4,300 -1,279 Descending Chicago Center
Wed 11:45:48 PM 42.8492 -85.7856 81° East 257 296 3,400 -689 Descending Chicago Center
Wed 11:46:49 PM 42.8569 -85.7142 82° East 204 235 2,900 -541 Descending Chicago Center
Wed 11:47:50 PM 42.8633 -85.6572 81° East 160 184 2,300 -595 Descending Chicago Center
Wed 11:48:50 PM 42.8694 -85.6056 81° East 145 167 1,700 -744 Descending Chicago Center
Wed 11:49:51 PM 42.8761 -85.5419 82° East 142 163 800 -885 Descending Chicago Center
Wed 11:51:00 PM 42.8667 -85.5167 90° East  Level FlightAware Approximate
Wed 11:58:00 PM 42.8808 -85.5228 90° East  Level Estimated

Login

Don't have an account? Register now (free) for customized features, flight alerts, and more!